Time;durP1;ratioP1;P1;durP2;ratioP2;P2;SDS_P1;SDS_P2;PMS_P1;PMS_P2;Temp;Humidity;BMP_temperature;BMP_pressure;BME280_temperature;BME280_humidity;BME280_pressure;Samples;Min_cycle;Max_cycle;Signal;HPM_P1;HPM_P2
2023/06/15 00:00:54;;;;;;;7.80;3.97;;;16.10;55.30;;;;;;4958924;28;20046;-65
2023/06/15 00:03:20;;;;;;;4.22;3.45;;;16.00;55.50;;;;;;4958578;28;20031;-65
2023/06/15 00:05:46;;;;;;;4.78;3.88;;;16.00;55.60;;;;;;4955067;28;20685;-65
2023/06/15 00:08:11;;;;;;;4.88;3.53;;;15.90;55.70;;;;;;4957122;28;20451;-64
2023/06/15 00:10:37;;;;;;;4.88;3.50;;;15.90;55.70;;;;;;4955682;28;20031;-65
2023/06/15 00:13:02;;;;;;;4.95;4.03;;;15.90;55.80;;;;;;4954074;28;20538;-65
2023/06/15 00:15:28;;;;;;;5.20;3.97;;;15.80;55.90;;;;;;4956154;28;20039;-65
2023/06/15 00:17:54;;;;;;;4.55;3.53;;;15.80;56.00;;;;;;4956612;28;20039;-64
2023/06/15 00:20:28;;;;;;;4.50;3.75;;;15.80;56.10;;;;;;4956178;28;20039;-65
2023/06/15 00:22:55;;;;;;;5.07;3.70;;;15.70;56.20;;;;;;4941745;28;20073;-64
2023/06/15 00:25:21;;;;;;;4.15;3.20;;;15.60;56.20;;;;;;4955451;28;20031;-64
2023/06/15 00:27:47;;;;;;;5.97;4.00;;;15.60;56.40;;;;;;4954496;28;20569;-64
2023/06/15 00:30:13;;;;;;;7.45;3.63;;;15.50;57.20;;;;;;4956816;28;20035;-64
2023/06/15 00:32:39;;;;;;;4.65;3.58;;;15.50;56.80;;;;;;4953874;28;20530;-65
2023/06/15 00:35:05;;;;;;;4.50;3.63;;;15.40;56.90;;;;;;4956059;28;20050;-64
2023/06/15 00:37:30;;;;;;;5.18;3.97;;;15.30;57.00;;;;;;4954243;28;20043;-63
2023/06/15 00:39:56;;;;;;;7.00;3.85;;;15.30;57.10;;;;;;4955092;28;20503;-64
2023/06/15 00:42:21;;;;;;;6.07;3.63;;;15.30;57.30;;;;;;4954858;28;20521;-64
2023/06/15 00:44:47;;;;;;;6.57;3.88;;;15.30;57.40;;;;;;4954065;28;20476;-64
2023/06/15 00:47:17;;;;;;;4.68;3.67;;;15.30;57.30;;;;;;4956182;28;20038;-64
2023/06/15 00:49:44;;;;;;;5.28;3.55;;;15.20;57.50;;;;;;4954466;28;20050;-65
2023/06/15 00:52:11;;;;;;;5.40;3.83;;;15.20;57.60;;;;;;4955543;28;20070;-65
2023/06/15 00:54:40;;;;;;;4.30;3.90;;;15.10;57.60;;;;;;4953247;28;20038;-64
2023/06/15 00:57:07;;;;;;;4.70;3.97;;;15.10;57.70;;;;;;4955202;28;20672;-65
2023/06/15 00:59:33;;;;;;;4.43;3.63;;;15.10;57.90;;;;;;4955099;28;20051;-64
2023/06/15 01:01:58;;;;;;;5.15;3.67;;;15.00;57.80;;;;;;4958378;28;20039;-64
2023/06/15 01:04:27;;;;;;;5.25;3.95;;;15.00;57.90;;;;;;4954451;28;20105;-65
2023/06/15 01:06:56;;;;;;;6.38;3.97;;;15.00;58.10;;;;;;4956682;28;20035;-64
2023/06/15 01:09:23;;;;;;;4.30;3.72;;;15.00;58.20;;;;;;4956180;28;20118;-64
2023/06/15 01:11:52;;;;;;;6.05;4.03;;;14.90;58.20;;;;;;4955633;28;20046;-64
2023/06/15 01:14:20;;;;;;;7.88;4.05;;;14.90;58.40;;;;;;4954275;28;20126;-64
2023/06/15 01:16:52;;;;;;;7.28;4.30;;;14.80;58.40;;;;;;4954883;28;20639;-64
2023/06/15 01:19:37;;;;;;;7.05;3.97;;;14.70;58.80;;;;;;4945362;28;20046;-64
2023/06/15 01:22:18;;;;;;;;;;;14.70;59.20;;;;;;4961191;28;20039;-64
2023/06/15 01:24:57;;;;;;;5.55;3.55;;;14.80;58.40;;;;;;4956945;28;19918;-65
2023/06/15 01:27:24;;;;;;;4.20;3.80;;;14.70;58.30;;;;;;4958576;28;20039;-64
2023/06/15 01:29:52;;;;;;;5.85;3.65;;;14.70;58.20;;;;;;4959133;28;20047;-64
2023/06/15 01:32:19;;;;;;;5.53;3.92;;;14.60;58.50;;;;;;4959917;28;20034;-65
2023/06/15 01:34:45;;;;;;;4.38;3.97;;;14.60;58.70;;;;;;4957166;28;20084;-64
2023/06/15 01:37:10;;;;;;;4.15;3.72;;;14.60;58.80;;;;;;4959525;28;20030;-64
2023/06/15 01:39:36;;;;;;;5.95;3.90;;;14.60;58.80;;;;;;4959074;28;20104;-64
2023/06/15 01:42:02;;;;;;;4.20;3.80;;;14.60;58.90;;;;;;4957358;28;20043;-63
2023/06/15 01:44:29;;;;;;;5.22;4.20;;;14.60;58.90;;;;;;4957331;28;20118;-63
2023/06/15 01:46:54;;;;;;;4.70;4.15;;;14.60;58.90;;;;;;4957724;28;20105;-64
2023/06/15 01:49:20;;;;;;;30.48;4.72;;;14.50;58.90;;;;;;4929425;28;20287;-64
2023/06/15 01:51:46;;;;;;;6.88;4.55;;;14.50;59.30;;;;;;4958093;28;20059;-64
2023/06/15 01:54:11;;;;;;;7.68;4.40;;;14.50;59.00;;;;;;4957652;28;20391;-65
2023/06/15 01:56:38;;;;;;;6.15;4.47;;;14.50;59.10;;;;;;4957061;28;20491;-65
2023/06/15 01:59:04;;;;;;;5.50;4.38;;;14.40;59.20;;;;;;4957565;28;20066;-65
2023/06/15 02:01:29;;;;;;;4.97;4.47;;;14.40;59.30;;;;;;4957388;28;20141;-65
2023/06/15 02:03:55;;;;;;;5.90;4.55;;;14.30;59.40;;;;;;4958150;28;20102;-64
2023/06/15 02:06:21;;;;;;;4.63;4.03;;;14.30;59.50;;;;;;4957602;28;20043;-64
2023/06/15 02:08:46;;;;;;;7.25;4.60;;;14.30;59.50;;;;;;4958173;28;20260;-64
2023/06/15 02:11:12;;;;;;;5.68;4.45;;;14.30;59.60;;;;;;4957819;28;20046;-65
2023/06/15 02:13:38;;;;;;;6.00;4.25;;;14.30;59.70;;;;;;4957041;28;20034;-64
2023/06/15 02:16:03;;;;;;;5.07;4.20;;;14.30;59.80;;;;;;4958668;28;20023;-64
2023/06/15 02:18:30;;;;;;;5.10;4.57;;;14.30;59.70;;;;;;4956789;28;20234;-64
2023/06/15 02:20:56;;;;;;;5.63;4.57;;;14.20;59.70;;;;;;4957375;28;20395;-65
2023/06/15 02:23:22;;;;;;;5.18;4.45;;;14.20;59.70;;;;;;4957698;28;20045;-64
2023/06/15 02:25:47;;;;;;;7.13;4.78;;;14.20;59.90;;;;;;4958056;28;20043;-64
2023/06/15 02:28:13;;;;;;;5.43;4.50;;;14.10;60.10;;;;;;4957124;28;20182;-63
2023/06/15 02:30:38;;;;;;;6.05;4.65;;;14.10;60.30;;;;;;4956615;28;20039;-65
2023/06/15 02:33:05;;;;;;;6.18;4.45;;;14.10;60.50;;;;;;4957765;28;20027;-65
2023/06/15 02:35:31;;;;;;;5.18;4.68;;;14.00;60.50;;;;;;4956703;28;20045;-64
2023/06/15 02:37:56;;;;;;;5.55;4.97;;;14.00;60.60;;;;;;4957223;28;20027;-65
2023/06/15 02:40:22;;;;;;;7.13;4.53;;;14.00;60.80;;;;;;4957537;28;20039;-65
2023/06/15 02:42:47;;;;;;;5.50;5.00;;;14.00;60.90;;;;;;4957092;28;20419;-65
2023/06/15 02:45:13;;;;;;;5.70;4.35;;;13.90;61.00;;;;;;4957234;28;20031;-65
2023/06/15 02:47:39;;;;;;;6.45;4.63;;;13.90;61.20;;;;;;4959098;28;20473;-64
2023/06/15 02:50:05;;;;;;;5.22;4.70;;;13.80;61.40;;;;;;4956869;28;20043;-65
2023/06/15 02:52:31;;;;;;;6.47;4.88;;;13.70;61.70;;;;;;4956980;28;20046;-63
2023/06/15 02:54:58;;;;;;;5.32;4.82;;;13.70;61.90;;;;;;4957707;28;20482;-64
2023/06/15 02:57:24;;;;;;;5.97;5.35;;;13.70;62.20;;;;;;4959182;28;20498;-64
2023/06/15 02:59:50;;;;;;;5.18;4.68;;;13.60;62.20;;;;;;4956623;28;20050;-64
2023/06/15 03:02:16;;;;;;;5.40;4.90;;;13.60;62.40;;;;;;4957003;28;20031;-64
2023/06/15 03:04:44;;;;;;;5.45;4.95;;;13.50;62.40;;;;;;4955800;28;20117;-64
2023/06/15 03:07:16;;;;;;;6.20;5.32;;;13.50;62.60;;;;;;4958037;28;20035;-65
2023/06/15 03:09:46;;;;;;;5.68;4.88;;;13.50;63.30;;;;;;4958496;28;20051;-64
2023/06/15 03:12:12;;;;;;;7.25;5.68;;;13.40;63.40;;;;;;4958801;28;20182;-65
2023/06/15 03:14:38;;;;;;;6.90;5.22;;;13.40;63.20;;;;;;4956920;28;20121;-64
2023/06/15 03:17:09;;;;;;;5.93;5.28;;;13.40;63.40;;;;;;4957964;28;20062;-65
2023/06/15 03:19:36;;;;;;;6.47;5.40;;;13.40;63.40;;;;;;4958419;28;20174;-64
2023/06/15 03:22:02;;;;;;;7.72;5.40;;;13.40;63.40;;;;;;4957552;28;20121;-64
2023/06/15 03:24:30;;;;;;;5.40;4.90;;;13.50;63.70;;;;;;4956588;28;20035;-64
2023/06/15 03:27:01;;;;;;;7.43;4.97;;;13.50;63.60;;;;;;4955933;28;20034;-64
2023/06/15 03:29:27;;;;;;;5.22;4.72;;;13.50;63.60;;;;;;4952627;28;20039;-64
2023/06/15 03:31:53;;;;;;;5.40;4.90;;;13.40;63.40;;;;;;4955152;28;20077;-64
2023/06/15 03:34:19;;;;;;;6.55;4.93;;;13.40;63.50;;;;;;4957435;28;20565;-65
2023/06/15 03:36:44;;;;;;;6.88;5.18;;;13.50;63.40;;;;;;4955639;28;20049;-65
2023/06/15 03:39:11;;;;;;;7.13;5.25;;;13.50;63.60;;;;;;4956010;28;20030;-65
2023/06/15 03:41:37;;;;;;;6.32;5.25;;;13.40;63.60;;;;;;4956645;28;20031;-64
2023/06/15 03:44:03;;;;;;;5.72;4.82;;;13.40;63.80;;;;;;4955358;28;20043;-64
2023/06/15 03:46:29;;;;;;;4.82;4.43;;;13.50;64.00;;;;;;4954619;28;20039;-64
2023/06/15 03:48:55;;;;;;;7.05;5.05;;;13.40;63.80;;;;;;4955458;28;20057;-64
2023/06/15 03:51:20;;;;;;;5.28;4.78;;;13.40;63.80;;;;;;4955366;28;20141;-64
2023/06/15 03:53:46;;;;;;;5.15;4.60;;;13.40;63.90;;;;;;4955633;28;20050;-64
2023/06/15 03:56:12;;;;;;;5.95;5.30;;;13.50;64.00;;;;;;4942363;28;20420;-65
2023/06/15 03:58:38;;;;;;;5.20;4.72;;;13.50;64.00;;;;;;4956434;28;20030;-64
2023/06/15 04:01:07;;;;;;;6.05;5.43;;;13.50;64.10;;;;;;4955662;28;20886;-64
2023/06/15 04:03:36;;;;;;;5.70;5.10;;;13.50;64.00;;;;;;4955280;28;20030;-62
2023/06/15 04:06:03;;;;;;;8.38;5.15;;;13.60;64.00;;;;;;4956425;28;20035;-65
2023/06/15 04:08:30;;;;;;;5.70;5.20;;;13.60;64.00;;;;;;4956164;28;20509;-65
2023/06/15 04:10:56;;;;;;;5.95;5.20;;;13.60;64.00;;;;;;4956015;28;20035;-65
2023/06/15 04:13:23;;;;;;;7.90;5.25;;;13.60;64.10;;;;;;4955049;28;20042;-65
2023/06/15 04:15:50;;;;;;;6.47;5.03;;;13.60;64.30;;;;;;4956442;28;20038;-64
2023/06/15 04:18:15;;;;;;;5.70;5.20;;;13.60;64.20;;;;;;4955124;28;20050;-64
2023/06/15 04:20:41;;;;;;;7.72;5.38;;;13.60;64.20;;;;;;4956647;28;20306;-65
2023/06/15 04:23:07;;;;;;;5.68;5.15;;;13.60;64.40;;;;;;4955408;28;20088;-64
2023/06/15 04:25:35;;;;;;;6.78;5.57;;;13.70;64.50;;;;;;4954293;28;20031;-64
2023/06/15 04:28:02;;;;;;;8.02;5.68;;;13.70;64.50;;;;;;4954964;28;20047;-64
2023/06/15 04:30:29;;;;;;;6.68;5.28;;;13.70;64.30;;;;;;4946363;28;20574;-65
2023/06/15 04:32:59;;;;;;;6.15;5.10;;;13.70;64.30;;;;;;4950064;28;20394;-65
2023/06/15 04:35:31;;;;;;;9.73;5.72;;;13.70;64.30;;;;;;4951013;28;20063;-65
2023/06/15 04:37:58;;;;;;;7.53;5.47;;;13.70;64.60;;;;;;4953805;28;20066;-65
2023/06/15 04:40:24;;;;;;;7.03;5.70;;;13.70;64.50;;;;;;4953559;28;20070;-65
2023/06/15 04:42:50;;;;;;;7.50;5.85;;;13.70;64.70;;;;;;4935335;28;20596;-64
2023/06/15 04:45:16;;;;;;;6.45;5.72;;;13.70;65.00;;;;;;4953891;28;20039;-63
2023/06/15 04:47:42;;;;;;;8.45;5.95;;;13.70;65.20;;;;;;4952585;28;20046;-65
2023/06/15 04:50:08;;;;;;;6.35;5.70;;;13.70;65.50;;;;;;4954865;28;20035;-64
2023/06/15 04:52:34;;;;;;;8.18;5.72;;;13.70;65.70;;;;;;4954019;28;20098;-64
2023/06/15 04:55:00;;;;;;;7.88;5.75;;;13.70;66.70;;;;;;4958561;28;20067;-64
2023/06/15 04:57:25;;;;;;;8.50;5.57;;;13.70;66.10;;;;;;4960755;28;20035;-64
2023/06/15 04:59:51;;;;;;;6.97;5.15;;;13.80;66.20;;;;;;4961275;28;20077;-64
2023/06/15 05:02:17;;;;;;;7.72;5.50;;;13.80;66.20;;;;;;4961455;28;20094;-64
2023/06/15 05:04:43;;;;;;;8.50;5.57;;;13.90;66.50;;;;;;4961038;28;20043;-63
2023/06/15 05:07:08;;;;;;;7.75;5.50;;;14.00;66.60;;;;;;4960574;28;20082;-63
2023/06/15 05:09:34;;;;;;;7.65;5.45;;;14.00;66.70;;;;;;4961250;28;20498;-64
2023/06/15 05:12:01;;;;;;;8.80;5.88;;;14.10;66.70;;;;;;4959222;28;20066;-65
2023/06/15 05:14:27;;;;;;;8.57;5.65;;;14.20;66.80;;;;;;4959225;28;20070;-64
2023/06/15 05:16:53;;;;;;;8.48;5.93;;;14.30;66.90;;;;;;4957922;28;20114;-64
2023/06/15 05:19:20;;;;;;;9.77;6.25;;;14.40;66.90;;;;;;4960251;28;20049;-64
2023/06/15 05:21:49;;;;;;;8.20;6.15;;;14.50;66.90;;;;;;4959682;28;20038;-64
2023/06/15 05:24:15;;;;;;;7.57;5.85;;;14.60;67.00;;;;;;4960459;28;20038;-64
2023/06/15 05:26:41;;;;;;;6.72;6.03;;;14.80;67.10;;;;;;4958239;28;20039;-64
2023/06/15 05:29:06;;;;;;;6.93;5.72;;;14.90;66.90;;;;;;4954106;28;20078;-64
2023/06/15 05:31:32;;;;;;;7.72;6.05;;;15.00;66.60;;;;;;4959899;28;20502;-64
2023/06/15 05:33:58;;;;;;;6.20;5.50;;;15.20;66.50;;;;;;4960971;28;20432;-64
2023/06/15 05:36:30;;;;;;;13.23;5.78;;;15.30;66.10;;;;;;4960628;28;20047;-64
2023/06/15 05:38:56;;;;;;;6.47;5.75;;;15.40;65.80;;;;;;4959717;28;20126;-64
2023/06/15 05:41:22;;;;;;;8.88;5.80;;;15.50;65.50;;;;;;4957760;28;20071;-64
2023/06/15 05:43:47;;;;;;;6.85;5.55;;;15.60;65.30;;;;;;4956546;28;20174;-64
2023/06/15 05:46:13;;;;;;;5.35;4.85;;;15.80;65.30;;;;;;4956750;28;20525;-64
2023/06/15 05:48:38;;;;;;;6.35;5.40;;;15.90;65.00;;;;;;4957114;28;20086;-63
2023/06/15 05:51:04;;;;;;;7.13;5.05;;;16.00;64.80;;;;;;4958157;28;20566;-64
2023/06/15 05:53:30;;;;;;;7.05;5.90;;;16.10;64.60;;;;;;4956579;28;20084;-64
2023/06/15 05:55:56;;;;;;;8.15;5.57;;;16.20;64.30;;;;;;4957994;28;20085;-64
2023/06/15 05:58:21;;;;;;;7.28;5.50;;;16.30;64.00;;;;;;4957075;28;20121;-64
2023/06/15 06:00:47;;;;;;;7.07;5.57;;;16.40;63.70;;;;;;4956637;28;20046;-64
2023/06/15 06:03:12;;;;;;;6.65;5.68;;;16.50;63.60;;;;;;4956828;28;20388;-64
2023/06/15 06:05:38;;;;;;;6.13;5.53;;;16.60;63.30;;;;;;4956449;28;20046;-64
2023/06/15 06:08:04;;;;;;;9.80;5.97;;;16.60;63.20;;;;;;4958835;28;20549;-64
2023/06/15 06:10:29;;;;;;;7.80;5.78;;;16.70;63.20;;;;;;4958926;28;20035;-64
2023/06/15 06:12:55;;;;;;;6.05;5.40;;;16.80;63.10;;;;;;4957572;28;20057;-63
2023/06/15 06:15:21;;;;;;;5.78;5.28;;;16.90;63.00;;;;;;4956336;28;20410;-61
2023/06/15 06:17:47;;;;;;;9.10;5.53;;;17.00;62.70;;;;;;4956420;28;20039;-62
2023/06/15 06:20:13;;;;;;;5.65;5.15;;;17.00;62.40;;;;;;4957776;28;20044;-64
2023/06/15 06:22:38;;;;;;;10.10;5.53;;;17.20;62.40;;;;;;4953964;28;20113;-64
2023/06/15 06:25:04;;;;;;;6.60;6.00;;;17.30;62.30;;;;;;4956996;28;20506;-64
2023/06/15 06:27:30;;;;;;;9.00;5.47;;;17.40;62.00;;;;;;4958032;28;20031;-64
2023/06/15 06:29:56;;;;;;;6.75;5.25;;;17.50;62.00;;;;;;4958408;28;20047;-64
2023/06/15 06:32:21;;;;;;;8.30;5.70;;;17.60;61.70;;;;;;4957101;28;20055;-64
2023/06/15 06:34:47;;;;;;;7.47;5.10;;;17.80;61.50;;;;;;4958413;28;20343;-64
2023/06/15 06:37:13;;;;;;;8.68;5.60;;;17.80;61.10;;;;;;4956453;28;20312;-64
2023/06/15 06:39:39;;;;;;;9.02;6.13;;;18.00;61.20;;;;;;4958520;28;20887;-64
2023/06/15 06:42:05;;;;;;;7.57;5.75;;;18.10;61.00;;;;;;4958370;28;20261;-64
2023/06/15 06:44:31;;;;;;;6.65;5.40;;;18.20;60.60;;;;;;4955484;28;20043;-64
2023/06/15 06:46:56;;;;;;;8.80;5.55;;;18.20;60.30;;;;;;4958747;28;20089;-64
2023/06/15 06:49:22;;;;;;;7.40;5.60;;;18.30;60.50;;;;;;4958039;28;20133;-64
2023/06/15 06:51:47;;;;;;;5.88;5.03;;;18.40;60.40;;;;;;4958044;28;20115;-64
2023/06/15 06:54:13;;;;;;;5.30;4.80;;;18.50;60.10;;;;;;4957652;28;20372;-65
2023/06/15 06:56:39;;;;;;;5.40;4.68;;;18.50;59.70;;;;;;4958436;28;20041;-64
2023/06/15 06:59:04;;;;;;;8.63;5.03;;;18.60;59.50;;;;;;4959030;28;20126;-64
2023/06/15 07:01:30;;;;;;;5.38;4.80;;;18.70;59.30;;;;;;4959207;28;20050;-64
2023/06/15 07:03:55;;;;;;;5.22;4.72;;;18.80;59.20;;;;;;4956737;28;20122;-64
2023/06/15 07:06:21;;;;;;;5.28;4.22;;;18.90;59.10;;;;;;4958567;28;20042;-63
2023/06/15 07:08:47;;;;;;;5.40;4.88;;;19.00;59.00;;;;;;4954550;28;21503;-64
2023/06/15 07:11:13;;;;;;;6.78;4.78;;;19.10;58.90;;;;;;4956707;28;20047;-63
2023/06/15 07:13:39;;;;;;;7.45;4.90;;;19.20;58.80;;;;;;4955292;28;20038;-64
2023/06/15 07:16:06;;;;;;;5.75;4.30;;;19.40;58.80;;;;;;4956338;28;20036;-63
2023/06/15 07:18:32;;;;;;;5.30;4.47;;;19.40;58.20;;;;;;4957699;28;20098;-63
2023/06/15 07:20:57;;;;;;;5.45;4.90;;;19.50;58.10;;;;;;4957424;28;20042;-64
2023/06/15 07:23:24;;;;;;;5.35;4.43;;;19.60;57.90;;;;;;4957732;28;20567;-64
2023/06/15 07:25:53;;;;;;;7.18;4.43;;;19.70;57.80;;;;;;4956761;28;20042;-64
2023/06/15 07:28:19;;;;;;;5.95;4.60;;;19.80;57.80;;;;;;4956378;28;20035;-65
2023/06/15 07:30:46;;;;;;;8.13;4.45;;;19.90;57.50;;;;;;4955267;28;20042;-64
2023/06/15 07:33:12;;;;;;;7.10;4.50;;;19.90;57.50;;;;;;4958484;28;20035;-63
2023/06/15 07:35:37;;;;;;;5.68;4.82;;;20.10;57.10;;;;;;4956734;28;20041;-64
2023/06/15 07:38:03;;;;;;;6.40;4.20;;;20.10;57.00;;;;;;4956357;28;20034;-64
2023/06/15 07:40:29;;;;;;;4.43;4.00;;;20.20;57.00;;;;;;4956017;28;20121;-64
2023/06/15 07:42:55;;;;;;;7.78;4.57;;;20.30;56.90;;;;;;4957280;28;20126;-64
2023/06/15 07:45:21;;;;;;;6.05;4.35;;;20.40;56.90;;;;;;4957301;28;20034;-64
2023/06/15 07:47:46;;;;;;;5.95;4.60;;;20.50;56.90;;;;;;4957572;28;20035;-64
2023/06/15 07:50:12;;;;;;;4.97;4.28;;;20.60;56.50;;;;;;4956671;28;20080;-64
2023/06/15 07:52:38;;;;;;;6.20;4.25;;;20.60;56.20;;;;;;4954957;28;20035;-62
2023/06/15 07:55:04;;;;;;;7.38;4.50;;;20.70;56.10;;;;;;4955377;28;20042;-63
2023/06/15 07:57:30;;;;;;;4.90;4.43;;;20.80;56.00;;;;;;4956896;28;20031;-64
2023/06/15 07:59:57;;;;;;;10.88;4.50;;;20.90;55.80;;;;;;4954517;28;20031;-64
2023/06/15 08:02:22;;;;;;;4.60;4.20;;;21.00;55.70;;;;;;4916596;28;20041;-64
2023/06/15 08:04:48;;;;;;;4.65;4.15;;;21.10;55.30;;;;;;4957355;28;20057;-63
2023/06/15 08:07:14;;;;;;;4.05;3.70;;;21.20;55.20;;;;;;4954409;28;20061;-63
2023/06/15 08:09:39;;;;;;;4.35;3.95;;;21.20;54.80;;;;;;4956168;28;20074;-64
2023/06/15 08:12:05;;;;;;;6.25;4.40;;;21.30;54.70;;;;;;4956184;28;20047;-64
2023/06/15 08:14:31;;;;;;;5.10;3.60;;;21.40;54.40;;;;;;4956815;28;20332;-64
2023/06/15 08:16:56;;;;;;;4.93;4.10;;;21.50;54.10;;;;;;4955911;28;20058;-64
2023/06/15 08:19:22;;;;;;;5.90;3.70;;;21.60;53.90;;;;;;4956466;28;20042;-63
2023/06/15 08:21:48;;;;;;;4.00;3.70;;;21.70;53.80;;;;;;4956030;28;20042;-64
2023/06/15 08:24:13;;;;;;;4.45;4.00;;;21.80;53.90;;;;;;4956978;28;20063;-64
2023/06/15 08:26:40;;;;;;;5.15;3.60;;;21.90;53.90;;;;;;4955904;28;20510;-63
2023/06/15 08:29:05;;;;;;;7.35;4.28;;;22.00;54.00;;;;;;4957255;28;20042;-64
2023/06/15 08:31:33;;;;;;;4.10;3.72;;;22.10;53.30;;;;;;4957484;28;20101;-64
2023/06/15 08:33:59;;;;;;;4.55;4.15;;;22.20;53.20;;;;;;4955169;28;20570;-63
2023/06/15 08:36:24;;;;;;;7.22;4.60;;;22.40;52.70;;;;;;4955929;28;20042;-64
2023/06/15 08:38:50;;;;;;;3.90;3.60;;;22.50;52.30;;;;;;4955295;28;20050;-63
2023/06/15 08:41:17;;;;;;;5.32;4.13;;;22.50;52.40;;;;;;4955396;28;20135;-61
2023/06/15 08:43:43;;;;;;;5.40;3.88;;;22.60;52.30;;;;;;4956184;28;20051;-64
2023/06/15 08:46:10;;;;;;;4.10;3.70;;;22.70;52.20;;;;;;4956804;28;20074;-64
2023/06/15 08:48:38;;;;;;;4.63;3.70;;;22.80;51.90;;;;;;4955901;28;20616;-62
2023/06/15 08:51:06;;;;;;;6.65;4.07;;;22.80;51.70;;;;;;4958167;28;20236;-64
2023/06/15 08:53:33;;;;;;;5.32;3.55;;;23.00;51.50;;;;;;4956695;28;20133;-63
2023/06/15 08:55:58;;;;;;;3.88;3.50;;;23.00;51.10;;;;;;4956109;28;20089;-63
2023/06/15 08:58:25;;;;;;;4.15;3.70;;;23.20;51.70;;;;;;4956923;28;20564;-64
2023/06/15 09:00:53;;;;;;;3.97;3.58;;;23.30;50.60;;;;;;4955727;28;20038;-63
2023/06/15 09:03:19;;;;;;;7.53;3.83;;;23.40;50.30;;;;;;4955676;28;20508;-64
2023/06/15 09:05:45;;;;;;;10.07;3.92;;;23.50;50.30;;;;;;4956545;28;20027;-63
2023/06/15 09:08:10;;;;;;;4.25;3.22;;;23.50;50.00;;;;;;4957148;28;20134;-63
2023/06/15 09:10:37;;;;;;;4.97;3.70;;;23.60;49.00;;;;;;4956715;28;20046;-63
2023/06/15 09:13:03;;;;;;;5.47;3.38;;;23.60;49.30;;;;;;4955860;28;20499;-62
2023/06/15 09:15:30;;;;;;;5.45;3.03;;;23.70;49.40;;;;;;4955510;28;20069;-64
2023/06/15 09:18:00;;;;;;;3.92;3.05;;;23.80;49.40;;;;;;4957215;28;20113;-63
2023/06/15 09:20:29;;;;;;;4.95;3.58;;;23.90;49.10;;;;;;4957233;28;20031;-63
2023/06/15 09:22:59;;;;;;;8.82;2.85;;;24.00;48.70;;;;;;4955333;28;20035;-64
2023/06/15 09:25:25;;;;;;;4.20;2.90;;;24.10;48.00;;;;;;4957912;28;20039;-63
2023/06/15 09:27:55;;;;;;;4.20;2.92;;;24.30;48.30;;;;;;4954958;28;20327;-63
2023/06/15 09:30:21;;;;;;;3.28;2.97;;;24.40;48.00;;;;;;4953136;28;20074;-63
2023/06/15 09:32:47;;;;;;;3.17;2.88;;;24.60;46.70;;;;;;4947776;28;20046;-63
2023/06/15 09:35:13;;;;;;;3.63;3.30;;;24.60;46.90;;;;;;4955245;28;20483;-63
2023/06/15 09:37:39;;;;;;;6.75;3.38;;;24.70;46.40;;;;;;4953201;28;20489;-63
2023/06/15 09:40:07;;;;;;;2.70;2.50;;;24.70;46.20;;;;;;4959485;28;20155;-64
2023/06/15 09:42:34;;;;;;;3.00;2.80;;;24.80;44.00;;;;;;4956515;28;20042;-64
2023/06/15 09:45:03;;;;;;;3.40;2.90;;;24.80;44.60;;;;;;4942881;28;20387;-64
2023/06/15 09:47:30;;;;;;;4.10;2.40;;;24.80;45.00;;;;;;4959352;28;20031;-64
2023/06/15 09:49:56;;;;;;;2.05;1.95;;;24.80;44.80;;;;;;4960742;28;20126;-64
2023/06/15 09:52:22;;;;;;;2.30;2.20;;;24.80;43.90;;;;;;4958431;28;20034;-65
2023/06/15 09:54:48;;;;;;;2.80;2.50;;;24.90;43.10;;;;;;4960653;28;20054;-63
2023/06/15 09:57:18;;;;;;;2.05;1.92;;;24.90;42.80;;;;;;4959488;28;20081;-64
2023/06/15 09:59:44;;;;;;;2.42;2.00;;;24.90;42.60;;;;;;4959389;28;20035;-64
2023/06/15 10:02:11;;;;;;;2.20;2.00;;;25.00;41.90;;;;;;4958063;28;20070;-64
2023/06/15 10:04:40;;;;;;;2.65;2.45;;;25.00;42.20;;;;;;4958557;28;20053;-63
2023/06/15 10:07:08;;;;;;;4.57;2.28;;;25.00;42.40;;;;;;4960254;28;20035;-63
2023/06/15 10:09:46;;;;;;;2.53;2.30;;;25.10;41.80;;;;;;4960828;28;20046;-64
2023/06/15 10:12:18;;;;;;;2.10;1.90;;;25.10;40.30;;;;;;4960128;28;20494;-64
2023/06/15 10:15:07;;;;;;;2.30;2.10;;;25.20;41.10;;;;;;4960660;28;20095;-63
2023/06/15 10:17:35;;;;;;;2.50;2.30;;;25.20;39.40;;;;;;4960893;28;20050;-63
2023/06/15 10:20:13;;;;;;;2.03;1.92;;;25.30;41.80;;;;;;4959728;28;20533;-64
2023/06/15 10:22:48;;;;;;;2.10;2.00;;;25.40;40.80;;;;;;4959993;28;20044;-64
2023/06/15 10:25:15;;;;;;;4.10;2.13;;;25.50;40.20;;;;;;4959789;28;20094;-64
2023/06/15 10:27:42;;;;;;;2.40;2.03;;;25.60;40.90;;;;;;4959689;28;20498;-64
2023/06/15 10:30:14;;;;;;;3.58;2.20;;;25.60;40.50;;;;;;4958880;28;20458;-62
2023/06/15 10:32:55;;;;;;;3.78;2.40;;;25.70;40.40;;;;;;4956751;28;20410;-64
2023/06/15 10:35:39;;;;;;;6.30;2.25;;;25.80;40.20;;;;;;4957533;28;20038;-63
2023/06/15 10:38:05;;;;;;;;;;;25.90;39.30;;;;;;4958146;28;20039;-63
2023/06/15 10:40:38;;;;;;;3.22;2.30;;;26.00;39.50;;;;;;4956470;28;20448;-64
2023/06/15 10:43:03;;;;;;;3.65;2.65;;;26.10;38.60;;;;;;4958606;28;20038;-63
2023/06/15 10:45:35;;;;;;;2.58;2.38;;;26.10;39.60;;;;;;4958065;28;20035;-62
2023/06/15 10:48:02;;;;;;;2.60;2.40;;;26.20;38.40;;;;;;4957455;28;20047;-64
2023/06/15 10:50:43;;;;;;;2.50;2.00;;;26.10;39.40;;;;;;4957712;28;20034;-64
2023/06/15 10:53:33;;;;;;;4.53;2.45;;;26.20;39.10;;;;;;4957239;28;20035;-64
2023/06/15 10:55:59;;;;;;;2.42;2.22;;;26.30;39.20;;;;;;4957742;28;20037;-63
2023/06/15 10:58:26;;;;;;;2.15;2.05;;;26.40;39.50;;;;;;4959045;28;20434;-63
2023/06/15 11:01:25;;;;;;;8.02;2.40;;;26.60;39.20;;;;;;4959776;28;20046;-63
2023/06/15 11:03:53;;;;;;;2.42;2.20;;;26.60;38.20;;;;;;4925080;28;20563;-63
2023/06/15 11:06:22;;;;;;;4.20;2.25;;;26.70;37.80;;;;;;4958380;28;20054;-63
2023/06/15 11:08:53;;;;;;;3.30;2.10;;;26.80;38.00;;;;;;4956064;28;20411;-63
2023/06/15 11:11:26;;;;;;;3.85;2.13;;;26.80;37.20;;;;;;4956768;28;20045;-62
2023/06/15 11:13:55;;;;;;;2.75;1.98;;;26.90;37.30;;;;;;4956026;28;20038;-64
2023/06/15 11:16:26;;;;;;;2.85;2.45;;;26.90;37.20;;;;;;4959984;28;20053;-64
2023/06/15 11:19:15;;;;;;;2.10;2.00;;;27.00;36.50;;;;;;4957151;28;20042;-64
2023/06/15 11:22:07;;;;;;;2.38;2.17;;;27.10;34.40;;;;;;4951253;28;20402;-64
2023/06/15 11:24:38;;;;;;;4.05;2.03;;;27.00;32.60;;;;;;4952649;28;20411;-64
2023/06/15 11:27:11;;;;;;;2.60;1.90;;;27.00;34.30;;;;;;4959743;28;20114;-63
2023/06/15 11:29:41;;;;;;;1.83;1.70;;;26.90;34.50;;;;;;4957896;28;20510;-64
2023/06/15 11:32:09;;;;;;;2.38;1.88;;;26.90;35.60;;;;;;4957354;28;20110;-63
2023/06/15 11:34:36;;;;;;;1.90;1.63;;;26.80;35.60;;;;;;4955824;28;20462;-63
2023/06/15 11:37:02;;;;;;;3.70;2.20;;;26.90;36.10;;;;;;4957060;28;20164;-64
2023/06/15 11:39:29;;;;;;;2.30;2.10;;;26.90;34.70;;;;;;4957201;28;20042;-64
2023/06/15 11:41:57;;;;;;;2.00;1.73;;;26.90;35.40;;;;;;4957645;28;20038;-64
2023/06/15 11:44:25;;;;;;;3.33;1.88;;;26.80;34.40;;;;;;4957823;28;20046;-63
2023/06/15 11:46:59;;;;;;;2.13;1.95;;;26.80;34.20;;;;;;4957450;28;20035;-64
2023/06/15 11:49:34;;;;;;;3.08;1.88;;;26.70;34.40;;;;;;4958413;28;21424;-65
2023/06/15 11:51:59;;;;;;;2.30;2.10;;;26.70;34.70;;;;;;4958936;28;20058;-63
2023/06/15 11:54:26;;;;;;;2.47;1.80;;;26.60;34.50;;;;;;4957350;28;20039;-63
2023/06/15 11:56:55;;;;;;;2.88;1.70;;;26.50;35.10;;;;;;4954596;28;20380;-64
2023/06/15 11:59:22;;;;;;;1.92;1.73;;;26.50;35.60;;;;;;4958126;28;20066;-64
2023/06/15 12:01:49;;;;;;;2.03;1.88;;;26.50;35.10;;;;;;4955946;28;20159;-64
2023/06/15 12:04:15;;;;;;;2.40;2.03;;;26.60;36.00;;;;;;4955696;28;20053;-63
2023/06/15 12:06:45;;;;;;;5.43;1.98;;;26.60;36.60;;;;;;4957227;28;20414;-64
2023/06/15 12:09:11;;;;;;;2.13;1.90;;;26.60;36.50;;;;;;4957539;28;20702;-64
2023/06/15 12:11:37;;;;;;;4.68;2.03;;;26.60;37.00;;;;;;4955523;28;20039;-64
2023/06/15 12:14:11;;;;;;;3.25;2.03;;;26.60;36.50;;;;;;4958710;28;20035;-64
2023/06/15 12:16:37;;;;;;;2.72;2.42;;;26.50;36.20;;;;;;4955709;28;20039;-64
2023/06/15 12:19:07;;;;;;;2.55;2.35;;;26.40;36.50;;;;;;4953543;28;20213;-64
2023/06/15 12:21:37;;;;;;;2.42;2.10;;;26.20;37.50;;;;;;4958186;28;20078;-64
2023/06/15 12:24:17;;;;;;;2.88;2.22;;;26.10;37.70;;;;;;4954971;28;20042;-64
2023/06/15 12:26:51;;;;;;;3.58;2.60;;;26.00;38.20;;;;;;4956591;28;20122;-64
2023/06/15 12:29:19;;;;;;;3.22;2.50;;;26.00;37.00;;;;;;4957277;28;20533;-65
2023/06/15 12:31:49;;;;;;;3.15;2.15;;;25.90;37.70;;;;;;4957428;28;20139;-63
2023/06/15 12:34:21;;;;;;;2.58;2.15;;;25.90;37.40;;;;;;4935839;28;20109;-63
2023/06/15 12:36:46;;;;;;;2.50;2.30;;;25.80;37.20;;;;;;4953697;28;20035;-64
2023/06/15 12:39:13;;;;;;;4.18;2.47;;;25.70;37.40;;;;;;4953173;28;20041;-62
2023/06/15 12:41:41;;;;;;;2.30;2.10;;;25.70;37.20;;;;;;4956001;28;20042;-64
2023/06/15 12:44:07;;;;;;;2.03;1.92;;;25.50;37.10;;;;;;4958252;28;20890;-63
2023/06/15 12:46:35;;;;;;;2.60;2.03;;;25.40;37.60;;;;;;4954037;28;20049;-64
2023/06/15 12:49:01;;;;;;;3.45;2.22;;;25.40;37.60;;;;;;4957047;28;20499;-63